createdAt,value
2018-05-15T00:01:45.947Z,15.80
2018-05-15T00:03:50.991Z,15.70
2018-05-15T00:05:55.439Z,15.70
2018-05-15T00:08:00.717Z,16.10
2018-05-15T00:10:04.779Z,16.10
2018-05-15T00:12:08.742Z,15.80
2018-05-15T00:14:13.142Z,15.80
2018-05-15T00:16:17.576Z,15.70
2018-05-15T00:18:22.318Z,15.80
2018-05-15T00:20:26.755Z,15.70
2018-05-15T00:22:31.959Z,15.70
2018-05-15T00:24:37.111Z,15.60
2018-05-15T00:26:41.797Z,15.60
2018-05-15T00:28:46.212Z,15.50
2018-05-15T00:30:51.076Z,15.50
2018-05-15T00:32:55.510Z,15.30
2018-05-15T00:35:00.711Z,15.40
2018-05-15T00:37:05.172Z,15.30
2018-05-15T00:39:09.600Z,15.20
2018-05-15T00:41:14.071Z,15.30
2018-05-15T00:43:18.502Z,15.30
2018-05-15T00:45:23.731Z,15.40
2018-05-15T00:47:28.212Z,15.30
2018-05-15T00:49:32.621Z,15.40
2018-05-15T00:51:37.079Z,15.30
2018-05-15T00:53:41.508Z,15.60
2018-05-15T00:55:45.026Z,15.50
2018-05-15T00:57:49.492Z,15.40
2018-05-15T00:59:53.930Z,15.30
2018-05-15T01:01:58.845Z,15.20
2018-05-15T01:04:03.282Z,15.20
2018-05-15T01:06:08.678Z,15.00
2018-05-15T01:08:13.105Z,14.90
2018-05-15T01:10:17.660Z,14.90
2018-05-15T01:12:21.803Z,14.80
2018-05-15T01:14:26.242Z,14.90
2018-05-15T01:16:30.756Z,14.90
2018-05-15T01:18:35.150Z,14.80
2018-05-15T01:20:39.584Z,14.80
2018-05-15T01:22:44.039Z,15.00
2018-05-15T01:24:48.467Z,15.00
2018-05-15T01:26:53.761Z,15.00
2018-05-15T01:28:58.175Z,15.00
2018-05-15T01:31:02.598Z,15.00
2018-05-15T01:33:07.055Z,15.00
2018-05-15T01:35:11.226Z,14.90
2018-05-15T01:37:15.432Z,14.90
2018-05-15T01:39:19.579Z,15.00
2018-05-15T01:41:24.003Z,14.90
2018-05-15T01:43:28.272Z,14.90
2018-05-15T01:45:32.673Z,14.80
2018-05-15T01:47:37.118Z,15.10
2018-05-15T01:49:41.567Z,15.10
2018-05-15T01:51:46.774Z,14.80
2018-05-15T01:53:51.224Z,14.80
2018-05-15T01:55:56.518Z,14.70
2018-05-15T01:58:00.934Z,14.60
2018-05-15T02:00:05.139Z,14.60
2018-05-15T02:02:09.550Z,14.60
2018-05-15T02:04:13.978Z,14.90
2018-05-15T02:06:18.492Z,15.00
2018-05-15T02:08:22.660Z,15.00
2018-05-15T02:10:27.016Z,15.00
2018-05-15T02:12:31.059Z,15.10
2018-05-15T02:14:35.490Z,14.90
2018-05-15T02:16:40.693Z,14.90
2018-05-15T02:18:45.129Z,14.90
2018-05-15T02:20:49.310Z,15.10
2018-05-15T02:22:54.027Z,15.00
2018-05-15T02:24:58.552Z,15.00
2018-05-15T02:27:03.064Z,15.00
2018-05-15T02:29:07.513Z,15.00
2018-05-15T02:31:11.947Z,14.80
2018-05-15T02:33:17.192Z,14.60
2018-05-15T02:35:22.486Z,14.70
2018-05-15T02:37:28.650Z,14.70
2018-05-15T02:39:33.149Z,14.70
2018-05-15T02:41:37.550Z,14.80
2018-05-15T02:43:41.999Z,14.90
2018-05-15T02:45:46.442Z,14.80
2018-05-15T02:47:51.102Z,14.80
2018-05-15T02:49:55.538Z,14.70
2018-05-15T02:51:59.983Z,14.60
2018-05-15T02:54:04.439Z,14.50
2018-05-15T02:56:08.880Z,14.40
2018-05-15T02:58:13.519Z,14.50
2018-05-15T03:00:17.956Z,14.60
2018-05-15T03:02:22.394Z,14.50
2018-05-15T03:04:27.618Z,14.60
2018-05-15T03:06:32.096Z,14.50
2018-05-15T03:08:36.494Z,14.50
2018-05-15T03:10:40.966Z,14.40
2018-05-15T03:12:45.410Z,14.50
2018-05-15T03:14:50.812Z,14.40
2018-05-15T03:16:55.250Z,14.40
2018-05-15T03:19:00.449Z,14.30
2018-05-15T03:21:05.115Z,14.30
2018-05-15T03:23:10.324Z,14.40
2018-05-15T03:25:14.758Z,14.40
2018-05-15T03:27:20.185Z,14.50
2018-05-15T03:29:24.623Z,14.40
2018-05-15T03:31:30.024Z,14.50
2018-05-15T03:33:34.646Z,14.40
2018-05-15T03:35:39.085Z,14.20
2018-05-15T03:37:44.307Z,14.20
2018-05-15T03:39:48.750Z,14.10
2018-05-15T03:41:53.945Z,14.20
2018-05-15T03:43:58.393Z,14.20
2018-05-15T03:46:03.260Z,14.00
2018-05-15T03:48:07.934Z,14.00
2018-05-15T03:50:12.045Z,14.10
2018-05-15T03:52:16.204Z,14.10
2018-05-15T03:54:20.641Z,14.20
2018-05-15T03:56:25.107Z,14.20
2018-05-15T03:58:30.310Z,14.00
2018-05-15T04:03:22.769Z,13.90
2018-05-15T04:05:38.982Z,14.00
2018-05-15T04:07:54.315Z,14.00
2018-05-15T04:09:58.245Z,14.00
2018-05-15T04:12:03.043Z,14.20
2018-05-15T04:14:07.486Z,14.20
2018-05-15T04:16:12.125Z,14.30
2018-05-15T04:18:17.322Z,14.30
2018-05-15T04:20:21.767Z,14.30
2018-05-15T04:22:26.194Z,14.30
2018-05-15T04:24:31.172Z,14.50
2018-05-15T04:26:35.602Z,14.40
2018-05-15T04:28:40.038Z,14.50
2018-05-15T04:30:44.486Z,14.50
2018-05-15T04:32:48.928Z,14.50
2018-05-15T04:34:53.370Z,14.30
2018-05-15T04:36:57.810Z,14.20
2018-05-15T04:39:02.242Z,14.20
2018-05-15T04:41:06.423Z,14.50
2018-05-15T04:43:10.866Z,14.60
2018-05-15T04:45:16.091Z,14.60
2018-05-15T04:47:20.555Z,14.60
2018-05-15T04:49:25.010Z,14.70
2018-05-15T04:51:29.630Z,14.70
2018-05-15T04:53:34.079Z,14.60
2018-05-15T04:55:39.361Z,14.70
2018-05-15T04:57:43.922Z,14.70
2018-05-15T04:59:48.379Z,14.70
2018-05-15T05:01:52.910Z,14.80
2018-05-15T05:03:57.487Z,14.80
2018-05-15T05:06:01.595Z,14.90
2018-05-15T05:08:06.792Z,14.90
2018-05-15T05:10:11.223Z,14.90
2018-05-15T05:12:16.158Z,15.00
2018-05-15T05:14:20.818Z,15.00
2018-05-15T05:16:26.162Z,15.00
2018-05-15T05:18:30.592Z,15.10
2018-05-15T05:20:35.028Z,15.00
2018-05-15T05:22:39.183Z,15.00
2018-05-15T05:24:44.385Z,15.20
2018-05-15T05:26:49.047Z,15.20
2018-05-15T05:28:54.250Z,15.20
2018-05-15T05:31:00.197Z,15.20
2018-05-15T05:33:04.325Z,15.20
2018-05-15T05:35:08.192Z,15.40
2018-05-15T05:37:12.249Z,15.50
2018-05-15T05:39:17.498Z,15.60
2018-05-15T05:41:21.933Z,15.60
2018-05-15T05:43:26.370Z,15.60
2018-05-15T05:45:30.814Z,15.60
2018-05-15T05:47:35.251Z,15.70
2018-05-15T05:49:40.450Z,15.80
2018-05-15T05:51:44.888Z,15.80
2018-05-15T05:53:49.322Z,15.90
2018-05-15T05:55:54.578Z,16.00
2018-05-15T05:57:59.163Z,16.00
2018-05-15T06:00:03.268Z,16.00
2018-05-15T06:02:07.274Z,16.00
2018-05-15T06:04:11.702Z,16.10
2018-05-15T06:06:16.907Z,16.30
2018-05-15T06:08:21.446Z,16.30
2018-05-15T06:10:25.895Z,16.30
2018-05-15T06:12:31.074Z,16.30
2018-05-15T06:14:35.523Z,16.30
2018-05-15T06:16:39.962Z,16.30
2018-05-15T06:18:44.397Z,16.40
2018-05-15T06:20:48.956Z,16.40
2018-05-15T06:22:53.486Z,16.40
2018-05-15T06:24:57.913Z,16.50
2018-05-15T06:27:02.805Z,16.60
2018-05-15T06:29:07.460Z,16.60
2018-05-15T06:31:11.890Z,16.70
2018-05-15T06:33:16.424Z,16.70
2018-05-15T06:35:20.862Z,16.70
2018-05-15T06:37:25.303Z,16.70
2018-05-15T06:39:29.734Z,16.80
2018-05-15T06:41:34.670Z,16.90
2018-05-15T06:43:38.962Z,16.90
2018-05-15T06:45:43.410Z,16.90
2018-05-15T06:47:47.855Z,17.00
2018-05-15T06:49:52.286Z,16.90
2018-05-15T06:51:56.717Z,16.90
2018-05-15T06:54:01.158Z,17.00
2018-05-15T06:56:07.118Z,17.10
2018-05-15T06:58:11.560Z,17.10
2018-05-15T07:00:16.782Z,17.20
2018-05-15T07:02:21.982Z,17.20
2018-05-15T07:04:26.421Z,17.30
2018-05-15T07:06:31.125Z,17.20
2018-05-15T07:08:35.554Z,17.20
2018-05-15T07:10:39.986Z,17.20
2018-05-15T07:12:44.642Z,17.30
2018-05-15T07:14:49.470Z,17.40
2018-05-15T07:16:53.901Z,17.40
2018-05-15T07:18:58.022Z,17.50
2018-05-15T07:21:02.465Z,17.60
2018-05-15T07:23:08.399Z,17.70
2018-05-15T07:25:12.506Z,17.70
2018-05-15T07:27:16.975Z,17.80
2018-05-15T07:29:22.366Z,18.00
2018-05-15T07:31:26.818Z,18.00
2018-05-15T07:33:32.027Z,18.20
2018-05-15T07:35:36.458Z,18.20
2018-05-15T07:37:41.081Z,18.30
2018-05-15T07:39:46.281Z,18.40
2018-05-15T07:41:50.734Z,18.40
2018-05-15T07:43:55.178Z,18.50
2018-05-15T07:45:59.610Z,18.50
2018-05-15T07:48:04.043Z,18.50
2018-05-15T07:50:08.197Z,18.50
2018-05-15T07:52:14.152Z,18.60
2018-05-15T07:54:18.788Z,18.60
2018-05-15T07:56:23.249Z,18.80
2018-05-15T07:58:28.406Z,19.00
2018-05-15T08:00:32.838Z,19.00
2018-05-15T08:02:38.070Z,19.20
2018-05-15T08:04:44.006Z,19.20
2018-05-15T08:06:48.471Z,19.20
2018-05-15T08:08:52.951Z,19.30
2018-05-15T08:10:57.878Z,19.50
2018-05-15T08:13:02.307Z,19.50
2018-05-15T08:15:06.917Z,19.50
2018-05-15T08:17:11.347Z,19.50
2018-05-15T08:19:16.539Z,19.80
2018-05-15T08:21:21.190Z,19.70
2018-05-15T08:23:25.823Z,19.80
2018-05-15T08:25:30.282Z,19.90
2018-05-15T08:27:34.722Z,20.00
2018-05-15T08:29:39.170Z,20.00
2018-05-15T08:31:43.798Z,20.10
2018-05-15T08:33:49.014Z,20.20
2018-05-15T08:35:53.440Z,20.20
2018-05-15T08:37:59.378Z,20.30
2018-05-15T08:40:03.522Z,20.30
2018-05-15T08:42:08.126Z,20.40
2018-05-15T08:44:12.758Z,20.50
2018-05-15T08:46:17.959Z,20.50
2018-05-15T08:48:22.391Z,20.40
2018-05-15T08:50:27.022Z,20.50
2018-05-15T08:52:32.243Z,20.70
2018-05-15T08:54:36.674Z,20.70
2018-05-15T08:56:41.870Z,20.80
2018-05-15T08:58:46.453Z,20.80
2018-05-15T09:00:51.674Z,20.90
2018-05-15T09:02:56.862Z,21.00
2018-05-15T09:05:01.627Z,20.90
2018-05-15T09:07:06.079Z,21.00
2018-05-15T09:09:10.502Z,21.10
2018-05-15T09:11:15.031Z,21.00
2018-05-15T09:13:20.793Z,21.10
2018-05-15T09:15:25.227Z,21.10
2018-05-15T09:17:31.178Z,21.20
2018-05-15T09:19:37.124Z,21.30
2018-05-15T09:21:41.738Z,21.30
2018-05-15T09:23:46.394Z,21.30
2018-05-15T09:25:50.822Z,21.40
2018-05-15T09:27:56.223Z,21.60
2018-05-15T09:30:00.861Z,21.60
2018-05-15T09:32:06.003Z,21.60
2018-05-15T09:34:10.445Z,21.60
2018-05-15T09:36:14.885Z,21.60
2018-05-15T09:38:19.163Z,21.70
2018-05-15T09:40:24.681Z,21.80
2018-05-15T09:42:30.818Z,21.80
2018-05-15T09:44:35.251Z,21.80
2018-05-15T09:46:40.531Z,21.80
2018-05-15T09:48:44.963Z,21.80
2018-05-15T09:50:49.382Z,21.80
2018-05-15T09:52:53.816Z,21.80
2018-05-15T09:54:58.259Z,21.90
2018-05-15T09:57:03.455Z,22.00
2018-05-15T09:59:07.878Z,22.00
2018-05-15T10:01:12.338Z,22.00
2018-05-15T10:03:17.540Z,22.00
2018-05-15T10:05:21.958Z,22.00
2018-05-15T10:07:26.156Z,22.10
2018-05-15T10:09:30.578Z,22.00
2018-05-15T10:11:35.022Z,22.00
2018-05-15T10:13:39.649Z,22.10
2018-05-15T10:15:44.090Z,22.30
2018-05-15T10:17:49.278Z,22.30
2018-05-15T10:19:53.778Z,22.30
2018-05-15T10:21:58.082Z,22.30
2018-05-15T10:24:02.178Z,22.40
2018-05-15T10:26:06.397Z,22.20
2018-05-15T10:28:10.814Z,22.30
2018-05-15T10:30:14.918Z,22.40
2018-05-15T10:32:19.412Z,22.60
2018-05-15T10:34:23.999Z,22.70
2018-05-15T10:36:28.430Z,22.60
2018-05-15T10:38:33.324Z,22.50
2018-05-15T10:40:37.722Z,22.50
2018-05-15T10:42:42.151Z,22.50
2018-05-15T10:44:46.603Z,22.60
2018-05-15T10:46:51.041Z,22.60
2018-05-15T10:48:56.231Z,22.70
2018-05-15T10:51:00.678Z,22.70
2018-05-15T10:53:05.109Z,22.90
2018-05-15T10:55:10.396Z,23.00
2018-05-15T10:57:14.798Z,22.90
2018-05-15T10:59:19.241Z,22.80
2018-05-15T11:01:23.683Z,22.80
2018-05-15T11:03:28.157Z,22.80
2018-05-15T11:05:32.595Z,22.90
2018-05-15T11:07:37.028Z,22.90
2018-05-15T11:09:42.971Z,23.00
2018-05-15T11:11:48.911Z,23.20
2018-05-15T11:13:53.349Z,23.20
2018-05-15T11:15:59.291Z,23.50
2018-05-15T11:18:15.466Z,23.40
2018-05-15T11:20:30.849Z,23.40
2018-05-15T11:22:46.864Z,23.50
2018-05-15T11:24:53.651Z,23.60
2018-05-15T11:26:58.834Z,24.10
2018-05-15T11:29:02.958Z,24.10
2018-05-15T11:31:07.390Z,24.60
2018-05-15T11:33:12.026Z,25.40
2018-05-15T11:35:17.551Z,26.80
2018-05-15T11:37:21.978Z,26.80
2018-05-15T11:39:26.419Z,27.10
2018-05-15T11:41:31.644Z,27.10
2018-05-15T11:43:36.254Z,27.00
2018-05-15T11:45:41.242Z,26.80
2018-05-15T11:47:45.949Z,26.90
2018-05-15T11:49:51.086Z,25.80
2018-05-15T11:51:55.786Z,25.80
2018-05-15T11:54:00.072Z,26.60
2018-05-15T11:56:05.170Z,27.00
2018-05-15T11:58:11.052Z,27.30
2018-05-15T12:00:16.250Z,27.30
2018-05-15T12:02:22.209Z,28.20
2018-05-15T12:04:26.754Z,28.20
2018-05-15T12:06:31.838Z,27.60
2018-05-15T12:08:36.393Z,27.40
2018-05-15T12:10:40.867Z,27.30
2018-05-15T12:12:45.452Z,27.70
2018-05-15T12:14:49.902Z,27.90
2018-05-15T12:16:54.335Z,27.50
2018-05-15T12:18:59.317Z,27.00
2018-05-15T12:21:04.323Z,26.50
2018-05-15T12:23:10.262Z,26.90
2018-05-15T12:25:14.727Z,26.90
2018-05-15T12:27:19.978Z,27.50
2018-05-15T12:29:25.666Z,27.40
2018-05-15T12:31:30.091Z,28.00
2018-05-15T12:33:35.123Z,27.80
2018-05-15T12:35:40.278Z,27.30
2018-05-15T12:37:45.270Z,27.50
2018-05-15T12:39:51.023Z,28.00
2018-05-15T12:41:57.229Z,28.40
2018-05-15T12:44:02.203Z,28.40
2018-05-15T12:46:07.198Z,28.80
2018-05-15T12:48:12.249Z,28.50
2018-05-15T12:50:16.794Z,28.70
2018-05-15T12:52:21.130Z,27.90
2018-05-15T12:54:26.114Z,27.70
2018-05-15T12:56:31.094Z,27.70
2018-05-15T12:58:36.096Z,28.00
2018-05-15T13:00:40.530Z,28.20
2018-05-15T13:04:56.518Z,28.40
2018-05-15T13:07:02.272Z,27.90
2018-05-15T13:09:06.955Z,27.90
2018-05-15T13:11:11.957Z,28.00
2018-05-15T13:13:16.623Z,28.40
2018-05-15T13:15:22.585Z,27.50
2018-05-15T13:17:28.338Z,27.50
2018-05-15T13:19:34.102Z,27.40
2018-05-15T13:21:39.105Z,27.40
2018-05-15T13:23:45.185Z,27.40
2018-05-15T13:25:50.169Z,27.40
2018-05-15T13:27:54.823Z,28.30
2018-05-15T13:30:00.598Z,29.30
2018-05-15T13:32:05.604Z,29.20
2018-05-15T13:34:10.770Z,29.30
2018-05-15T13:36:15.991Z,28.50
2018-05-15T13:38:20.713Z,28.40
2018-05-15T13:40:25.702Z,28.50
2018-05-15T13:42:30.710Z,29.50
2018-05-15T13:44:35.138Z,29.50
2018-05-15T13:46:40.122Z,29.50
2018-05-15T13:48:44.567Z,29.50
2018-05-15T13:50:49.809Z,30.00
2018-05-15T13:52:54.410Z,29.90
2018-05-15T13:54:59.626Z,31.20
2018-05-15T13:57:04.046Z,31.20
2018-05-15T13:59:09.991Z,28.70
2018-05-15T14:01:14.101Z,28.70
2018-05-15T14:03:18.548Z,28.20
2018-05-15T14:05:23.738Z,28.90
2018-05-15T14:07:29.175Z,28.90
2018-05-15T14:09:34.930Z,29.50
2018-05-15T14:11:40.694Z,28.50
2018-05-15T14:13:45.708Z,28.40
2018-05-15T14:15:51.657Z,28.00
2018-05-15T14:17:57.598Z,28.00
2018-05-15T14:20:03.389Z,28.20
2018-05-15T14:22:08.375Z,28.20
2018-05-15T14:24:13.370Z,29.20
2018-05-15T14:26:18.366Z,29.30
2018-05-15T14:28:23.362Z,29.40
2018-05-15T14:30:29.856Z,29.60
2018-05-15T14:32:35.594Z,30.20
2018-05-15T14:34:41.344Z,30.80
2018-05-15T14:36:46.342Z,30.80
2018-05-15T14:38:51.510Z,29.20
2018-05-15T14:40:56.512Z,28.80
2018-05-15T14:43:12.826Z,29.00
2018-05-15T14:45:16.862Z,29.10
2018-05-15T14:47:21.593Z,28.40
2018-05-15T14:49:26.779Z,28.20
2018-05-15T14:51:31.204Z,28.50
2018-05-15T14:53:37.159Z,29.70
2018-05-15T14:55:41.599Z,29.70
2018-05-15T14:57:46.060Z,30.40
2018-05-15T14:59:51.048Z,29.00
2018-05-15T15:01:55.770Z,28.80
2018-05-15T15:04:00.198Z,29.20
2018-05-15T15:06:05.389Z,29.10
2018-05-15T15:08:11.158Z,29.90
2018-05-15T15:10:15.810Z,29.90
2018-05-15T15:12:20.786Z,29.80
2018-05-15T15:14:25.250Z,30.00
2018-05-15T15:16:30.087Z,29.40
2018-05-15T15:18:35.038Z,29.10
2018-05-15T15:20:40.330Z,29.40
2018-05-15T15:22:45.311Z,29.90
2018-05-15T15:24:49.743Z,29.20
2018-05-15T15:26:54.177Z,29.70
2018-05-15T15:28:59.102Z,30.10
2018-05-15T15:31:04.878Z,30.40
2018-05-15T15:33:09.298Z,30.40
2018-05-15T15:35:14.343Z,31.70
2018-05-15T15:37:19.474Z,31.30
2018-05-15T15:39:24.462Z,30.50
2018-05-15T15:41:29.450Z,29.50
2018-05-15T15:43:33.924Z,28.80
2018-05-15T15:45:38.223Z,28.50
2018-05-15T15:47:42.647Z,27.00
2018-05-15T15:49:47.078Z,26.40
2018-05-15T15:51:51.525Z,26.20
2018-05-15T15:53:56.998Z,25.50
2018-05-15T15:56:01.391Z,25.40
2018-05-15T15:58:05.936Z,25.10
2018-05-15T16:00:10.349Z,24.60
2018-05-15T16:02:14.679Z,24.50
2018-05-15T16:04:19.120Z,24.10
2018-05-15T16:06:23.583Z,24.00
2018-05-15T16:08:28.748Z,24.10
2018-05-15T16:10:33.194Z,24.10
2018-05-15T16:12:38.387Z,23.60
2018-05-15T16:14:42.840Z,23.60
2018-05-15T16:16:47.287Z,23.60
2018-05-15T16:18:52.670Z,23.50
2018-05-15T16:20:57.376Z,23.40
2018-05-15T16:23:02.542Z,23.40
2018-05-15T16:25:08.494Z,23.30
2018-05-15T16:27:12.967Z,23.30
2018-05-15T16:29:17.382Z,23.30
2018-05-15T16:31:21.813Z,23.10
2018-05-15T16:33:26.243Z,22.90
2018-05-15T16:35:30.689Z,23.00
2018-05-15T16:37:35.133Z,23.00
2018-05-15T16:39:39.574Z,22.80
2018-05-15T16:41:44.194Z,22.80
2018-05-15T16:43:48.651Z,22.80
2018-05-15T16:45:53.299Z,22.70
2018-05-15T16:47:57.915Z,22.80
2018-05-15T16:50:03.118Z,22.70
2018-05-15T16:52:07.546Z,22.70
2018-05-15T16:54:12.462Z,22.60
2018-05-15T16:56:17.539Z,22.50
2018-05-15T16:58:21.971Z,22.60
2018-05-15T17:00:26.394Z,22.60
2018-05-15T17:02:30.846Z,22.70
2018-05-15T17:04:35.275Z,22.40
2018-05-15T17:06:39.716Z,22.50
2018-05-15T17:08:44.936Z,22.20
2018-05-15T17:10:49.370Z,22.20
2018-05-15T17:12:54.561Z,22.40
2018-05-15T17:14:58.994Z,22.30
2018-05-15T17:17:03.424Z,22.20
2018-05-15T17:19:08.620Z,22.00
2018-05-15T17:21:13.129Z,22.00
2018-05-15T17:23:17.543Z,22.10
2018-05-15T17:25:22.237Z,22.00
2018-05-15T17:27:26.810Z,22.10
2018-05-15T17:29:31.236Z,22.20
2018-05-15T17:31:37.170Z,22.10
2018-05-15T17:33:41.894Z,22.10
2018-05-15T17:35:46.323Z,22.00
2018-05-15T17:37:50.741Z,22.00
2018-05-15T17:39:55.663Z,22.20
2018-05-15T17:42:00.099Z,22.10
2018-05-15T17:44:04.397Z,22.10
2018-05-15T17:46:10.346Z,21.60
2018-05-15T17:48:14.804Z,21.60
2018-05-15T17:50:19.997Z,21.70
2018-05-15T17:52:24.445Z,21.70
2018-05-15T17:54:29.846Z,21.80
2018-05-15T17:56:34.353Z,21.80
2018-05-15T17:58:38.774Z,21.90
2018-05-15T18:00:43.201Z,21.80
2018-05-15T18:02:47.648Z,21.90
2018-05-15T18:04:52.268Z,21.90
2018-05-15T18:06:57.477Z,21.90
2018-05-15T18:09:01.913Z,21.90
2018-05-15T18:11:06.330Z,22.10
2018-05-15T18:13:10.426Z,22.40
2018-05-15T18:15:16.436Z,22.50
2018-05-15T18:17:21.015Z,22.50
2018-05-15T18:19:25.448Z,22.20
2018-05-15T18:21:30.082Z,21.80
2018-05-15T18:23:35.502Z,21.70
2018-05-15T18:25:40.706Z,21.40
2018-05-15T18:27:45.131Z,21.40
2018-05-15T18:29:49.750Z,21.30
2018-05-15T18:31:55.686Z,21.00
2018-05-15T18:34:00.321Z,21.00
2018-05-15T18:36:04.787Z,21.00
2018-05-15T18:38:09.229Z,21.10
2018-05-15T18:40:13.661Z,21.00
2018-05-15T18:42:18.305Z,21.00
2018-05-15T18:44:22.474Z,21.00
2018-05-15T18:46:26.910Z,20.80
2018-05-15T18:48:31.362Z,20.80
2018-05-15T18:50:36.561Z,21.00
2018-05-15T18:52:42.219Z,21.00
2018-05-15T18:54:46.659Z,20.90
2018-05-15T18:56:51.855Z,20.70
2018-05-15T18:58:56.284Z,20.70
2018-05-15T19:01:00.908Z,20.80
2018-05-15T19:03:05.860Z,20.80
2018-05-15T19:05:10.305Z,20.80
2018-05-15T19:07:14.746Z,20.70
2018-05-15T19:09:18.962Z,20.90
2018-05-15T19:11:23.400Z,20.80
2018-05-15T19:13:27.824Z,20.70
2018-05-15T19:15:32.552Z,20.60
2018-05-15T19:17:37.752Z,20.60
2018-05-15T19:19:42.206Z,20.60
2018-05-15T19:21:47.590Z,20.60
2018-05-15T19:23:52.024Z,20.60
2018-05-15T19:25:56.463Z,20.50
2018-05-15T19:28:00.961Z,20.50
2018-05-15T19:30:05.396Z,20.40
2018-05-15T19:32:15.315Z,20.40
2018-05-15T19:34:25.909Z,20.40
2018-05-15T19:36:31.313Z,20.40
2018-05-15T19:38:35.882Z,20.40
2018-05-15T19:40:50.150Z,20.30
2018-05-15T19:42:55.341Z,20.30
2018-05-15T19:44:59.899Z,20.20
2018-05-15T19:47:04.859Z,20.20
2018-05-15T19:49:09.292Z,20.20
2018-05-15T19:51:13.811Z,20.20
2018-05-15T19:53:18.239Z,20.30
2018-05-15T19:55:22.684Z,20.00
2018-05-15T19:57:27.898Z,20.00
2018-05-15T19:59:33.115Z,20.00
2018-05-15T20:01:38.243Z,19.90
2018-05-15T20:03:42.711Z,19.80
2018-05-15T20:05:48.069Z,19.80
2018-05-15T20:07:53.465Z,19.70
2018-05-15T20:09:57.897Z,19.70
2018-05-15T20:12:02.478Z,19.80
2018-05-15T20:14:06.892Z,19.70
2018-05-15T20:16:11.445Z,19.70
2018-05-15T20:18:16.038Z,19.60
2018-05-15T20:20:20.680Z,19.50
2018-05-15T20:22:25.179Z,19.50
2018-05-15T20:24:29.590Z,19.40
2018-05-15T20:26:34.414Z,19.40
2018-05-15T20:28:38.811Z,19.30
2018-05-15T20:30:43.234Z,19.30
2018-05-15T20:32:47.903Z,19.30
2018-05-15T20:34:53.242Z,19.20
2018-05-15T20:36:57.757Z,19.20
2018-05-15T20:39:02.207Z,19.10
2018-05-15T20:41:06.455Z,19.20
2018-05-15T20:43:10.846Z,19.10
2018-05-15T20:45:15.306Z,19.20
2018-05-15T20:47:19.734Z,19.00
2018-05-15T20:49:24.270Z,19.00
2018-05-15T20:51:29.488Z,18.90
2018-05-15T20:53:33.946Z,18.90
2018-05-15T20:55:39.111Z,18.90
2018-05-15T20:57:43.578Z,18.90
2018-05-15T20:59:48.761Z,18.80
2018-05-15T21:01:53.196Z,18.80
2018-05-15T21:03:57.314Z,18.70
2018-05-15T21:06:01.746Z,18.70
2018-05-15T21:08:07.727Z,18.60
2018-05-15T21:10:12.177Z,18.60
2018-05-15T21:12:16.610Z,18.70
2018-05-15T21:14:21.030Z,18.50
2018-05-15T21:16:25.732Z,18.50
2018-05-15T21:18:30.885Z,18.50
2018-05-15T21:20:35.313Z,18.50
2018-05-15T21:22:39.754Z,18.40
2018-05-15T21:24:44.947Z,18.40
2018-05-15T21:26:49.384Z,18.40
2018-05-15T21:28:53.830Z,18.40
2018-05-15T21:30:58.266Z,18.30
2018-05-15T21:33:02.695Z,18.30
2018-05-15T21:35:06.515Z,18.20
2018-05-15T21:37:11.141Z,18.30
2018-05-15T21:39:15.644Z,18.30
2018-05-15T21:41:20.059Z,18.20
2018-05-15T21:43:24.477Z,18.10
2018-05-15T21:45:29.001Z,18.00
2018-05-15T21:47:33.591Z,18.00
2018-05-15T21:49:38.062Z,17.90
2018-05-15T21:51:42.502Z,17.90
2018-05-15T21:53:47.694Z,17.90
2018-05-15T21:55:52.338Z,17.90
2018-05-15T21:57:56.782Z,17.80
2018-05-15T22:00:01.975Z,17.60
2018-05-15T22:02:06.901Z,17.60
2018-05-15T22:04:11.748Z,17.50
2018-05-15T22:06:16.171Z,17.50
2018-05-15T22:08:21.367Z,17.30
2018-05-15T22:10:26.087Z,17.30
2018-05-15T22:12:41.563Z,17.40
2018-05-15T22:15:03.059Z,17.50
2018-05-15T22:17:24.701Z,17.30
2018-05-15T22:19:46.118Z,17.20
2018-05-15T22:22:08.126Z,17.20
2018-05-15T22:24:23.107Z,17.20
2018-05-15T22:26:27.219Z,17.20
2018-05-15T22:28:31.675Z,17.20
2018-05-15T22:30:36.299Z,17.30
2018-05-15T22:32:41.503Z,17.40
2018-05-15T22:34:46.223Z,17.30
2018-05-15T22:36:50.805Z,17.40
2018-05-15T22:38:55.251Z,17.20
2018-05-15T22:40:59.650Z,17.20
2018-05-15T22:43:04.186Z,17.00
2018-05-15T22:45:08.578Z,17.20
2018-05-15T22:47:13.282Z,17.10
2018-05-15T22:49:18.561Z,16.90
2018-05-15T22:51:22.955Z,16.90
2018-05-15T22:53:27.498Z,17.00
2018-05-15T22:55:31.878Z,16.90
2018-05-15T22:57:36.298Z,17.00
2018-05-15T22:59:40.850Z,17.20
2018-05-15T23:01:45.238Z,17.00
2018-05-15T23:03:49.665Z,17.00
2018-05-15T23:05:54.131Z,17.10
2018-05-15T23:07:58.554Z,16.90
2018-05-15T23:10:02.982Z,16.80
2018-05-15T23:12:08.182Z,16.70
2018-05-15T23:14:12.609Z,16.60
2018-05-15T23:16:17.196Z,16.70
2018-05-15T23:18:21.720Z,16.60
2018-05-15T23:20:26.137Z,16.60
2018-05-15T23:22:41.959Z,16.50
2018-05-15T23:24:46.414Z,16.60
2018-05-15T23:26:50.855Z,16.50
2018-05-15T23:28:55.377Z,16.60
2018-05-15T23:31:00.719Z,16.50
2018-05-15T23:33:05.168Z,16.50
2018-05-15T23:35:09.601Z,16.60
2018-05-15T23:37:14.882Z,16.60
2018-05-15T23:39:20.078Z,16.70
2018-05-15T23:41:25.326Z,16.70
2018-05-15T23:43:29.772Z,16.70
2018-05-15T23:45:34.290Z,16.70
2018-05-15T23:47:38.682Z,16.60
2018-05-15T23:49:43.121Z,16.60
2018-05-15T23:51:47.641Z,16.50
2018-05-15T23:53:52.038Z,16.70
2018-05-15T23:55:56.466Z,16.40
2018-05-15T23:58:00.910Z,16.50
